createdAt,value
2016-05-08T00:00:25.147Z,28.56
2016-05-08T00:01:25.041Z,28.84
2016-05-08T00:02:25.262Z,28.28
2016-05-08T00:03:25.312Z,28.28
2016-05-08T00:04:25.346Z,28.66
2016-05-08T00:05:25.427Z,28.47
2016-05-08T00:06:25.476Z,29.05
2016-05-08T00:07:25.510Z,28.66
2016-05-08T00:08:25.560Z,28.64
2016-05-08T00:09:25.640Z,29.42
2016-05-08T00:10:25.674Z,28.85
2016-05-08T00:11:25.724Z,28.76
2016-05-08T00:12:25.961Z,28.74
2016-05-08T00:13:25.854Z,28.64
2016-05-08T00:14:25.904Z,28.64
2016-05-08T00:15:25.937Z,29.32
2016-05-08T00:16:25.987Z,28.64
2016-05-08T00:17:25.912Z,28.84
2016-05-08T00:18:26.118Z,28.84
2016-05-08T00:19:26.152Z,28.74
2016-05-08T00:20:26.076Z,28.55
2016-05-08T00:21:26.266Z,29.22
2016-05-08T00:22:26.347Z,29.03
2016-05-08T00:23:26.398Z,29.03
2016-05-08T00:24:26.454Z,29.13
2016-05-08T00:25:26.472Z,28.64
2016-05-08T00:26:26.381Z,29.22
2016-05-08T00:27:26.680Z,28.55
2016-05-08T00:28:26.651Z,29.61
2016-05-08T00:29:26.702Z,28.55
2016-05-08T00:30:26.735Z,29.8
2016-05-08T00:31:26.816Z,29.05
2016-05-08T00:32:26.866Z,28.36
2016-05-08T00:33:26.900Z,29.61
2016-05-08T00:34:26.980Z,29.32
2016-05-08T00:35:27.030Z,29.22
2016-05-08T00:36:27.079Z,29.52
2016-05-08T00:37:27.129Z,28.94
2016-05-08T00:38:27.195Z,28.94
2016-05-08T00:39:27.072Z,29.22
2016-05-08T00:40:27.294Z,29.61
2016-05-08T00:41:27.342Z,29.42
2016-05-08T00:42:27.267Z,29.22
2016-05-08T00:43:27.458Z,29.42
2016-05-08T00:44:27.508Z,29.42
2016-05-08T00:45:27.557Z,28.94
2016-05-08T00:46:27.622Z,29.13
2016-05-08T00:47:27.656Z,29.32
2016-05-08T00:48:27.722Z,29.32
2016-05-08T00:49:27.630Z,29.42
2016-05-08T00:50:27.805Z,29.42
2016-05-08T00:51:27.869Z,29.32
2016-05-08T00:52:27.779Z,29.13
2016-05-08T00:53:27.984Z,29.13
2016-05-08T00:54:28.050Z,29.42
2016-05-08T00:55:28.084Z,29.8
2016-05-08T00:56:28.133Z,29.52
2016-05-08T00:57:30.120Z,29.52
2016-05-08T00:58:28.248Z,29.9
2016-05-08T00:59:28.297Z,29.22
2016-05-08T01:00:28.379Z,29.52
2016-05-08T01:01:28.429Z,29.61
2016-05-08T01:02:28.462Z,29.42
2016-05-08T01:03:28.526Z,29.42
2016-05-08T01:04:28.593Z,29.32
2016-05-08T01:05:28.626Z,29.52
2016-05-08T01:06:28.520Z,29.52
2016-05-08T01:07:28.726Z,29.52
2016-05-08T01:08:28.806Z,29.61
2016-05-08T01:09:28.855Z,29.61
2016-05-08T01:10:28.889Z,29.61
2016-05-08T01:11:28.955Z,29.61
2016-05-08T01:12:29.020Z,29.52
2016-05-08T01:13:28.898Z,29.8
2016-05-08T01:14:29.119Z,29.42
2016-05-08T01:15:29.169Z,29.9
2016-05-08T01:16:29.047Z,29.52
2016-05-08T01:17:29.269Z,30.1
2016-05-08T01:18:29.302Z,30.38
2016-05-08T01:19:29.383Z,30.29
2016-05-08T01:20:29.447Z,29.71
2016-05-08T01:21:29.466Z,29.71
2016-05-08T01:22:29.547Z,29.71
2016-05-08T01:23:29.597Z,29.42
2016-05-08T01:24:29.646Z,29.52
2016-05-08T01:25:29.541Z,29.42
2016-05-08T01:26:29.761Z,29.71
2016-05-08T01:27:29.811Z,29.52
2016-05-08T01:28:29.860Z,30.58
2016-05-08T01:29:29.755Z,29.52
2016-05-08T01:30:29.960Z,30.38
2016-05-08T01:31:30.010Z,30
2016-05-08T01:32:30.090Z,30
2016-05-08T01:33:29.969Z,30.48
2016-05-08T01:34:30.190Z,29.9
2016-05-08T01:35:30.083Z,29.71
2016-05-08T01:36:30.304Z,30.58
2016-05-08T01:37:30.323Z,29.9
2016-05-08T01:38:30.403Z,29.8
2016-05-08T01:39:30.454Z,29.8
2016-05-08T01:40:30.487Z,30.19
2016-05-08T01:41:30.552Z,30.1
2016-05-08T01:42:30.461Z,30.29
2016-05-08T01:43:30.651Z,29.9
2016-05-08T01:44:30.560Z,30.1
2016-05-08T01:45:30.766Z,30.1
2016-05-08T01:46:30.831Z,30.19
2016-05-08T01:47:30.881Z,30.19
2016-05-08T01:48:30.931Z,30.29
2016-05-08T01:49:30.980Z,30.1
2016-05-08T01:50:31.045Z,30.29
2016-05-08T01:51:31.079Z,30.48
2016-05-08T01:52:31.144Z,30.19
2016-05-08T01:53:31.194Z,30.48
2016-05-08T01:54:31.244Z,30.48
2016-05-08T01:55:31.137Z,30.27
2016-05-08T01:56:31.358Z,30.38
2016-05-08T01:57:31.939Z,30.37
2016-05-08T01:58:31.472Z,30.27
2016-05-08T01:59:31.350Z,30.56
2016-05-08T02:00:31.572Z,30.37
2016-05-08T02:01:31.638Z,30.48
2016-05-08T02:02:31.656Z,30.38
2016-05-08T02:03:31.564Z,30.27
2016-05-08T02:04:31.785Z,30.38
2016-05-08T02:05:31.835Z,30.37
2016-05-08T02:06:31.869Z,30.48
2016-05-08T02:07:31.950Z,30.58
2016-05-08T02:08:32.000Z,30.46
2016-05-08T02:09:32.065Z,30.76
2016-05-08T02:10:32.098Z,30.37
2016-05-08T02:11:32.149Z,30.46
2016-05-08T02:12:32.230Z,30.46
2016-05-08T02:13:32.263Z,30.46
2016-05-08T02:14:32.313Z,30.76
2016-05-08T02:15:32.378Z,30.76
2016-05-08T02:16:32.443Z,30.77
2016-05-08T02:17:32.461Z,30.56
2016-05-08T02:18:32.527Z,30.56
2016-05-08T02:19:32.607Z,30.56
2016-05-08T02:20:32.626Z,30.58
2016-05-08T02:21:32.675Z,30.56
2016-05-08T02:22:32.756Z,30.66
2016-05-08T02:23:32.806Z,30.56
2016-05-08T02:24:32.856Z,30.46
2016-05-08T02:25:32.905Z,30.76
2016-05-08T02:26:32.986Z,30.56
2016-05-08T02:27:33.113Z,30.56
2016-05-08T02:28:33.069Z,30.94
2016-05-08T02:29:33.119Z,30.66
2016-05-08T02:30:33.184Z,30.85
2016-05-08T02:31:33.218Z,30.56
2016-05-08T02:32:33.283Z,31.04
2016-05-08T02:33:33.349Z,30.94
2016-05-08T02:34:33.366Z,30.76
2016-05-08T02:35:33.447Z,30.85
2016-05-08T02:36:33.482Z,30.85
2016-05-08T02:37:33.530Z,30.94
2016-05-08T02:38:33.596Z,30.94
2016-05-08T02:39:33.490Z,30.85
2016-05-08T02:40:33.695Z,30.76
2016-05-08T02:41:34.729Z,30.76
2016-05-08T02:42:33.843Z,30.85
2016-05-08T02:43:33.939Z,30.85
2016-05-08T02:44:34.020Z,31.04
2016-05-08T02:45:34.134Z,30.94
2016-05-08T02:46:34.090Z,31.04
2016-05-08T02:47:34.307Z,30.85
2016-05-08T02:48:34.407Z,31.14
2016-05-08T02:49:34.285Z,31.04
2016-05-08T02:50:34.539Z,30.85
2016-05-08T02:51:34.450Z,31.04
2016-05-08T02:52:34.665Z,30.94
2016-05-08T02:53:34.721Z,31.04
2016-05-08T02:54:34.637Z,30.85
2016-05-08T02:55:34.833Z,30.94
2016-05-08T02:56:34.888Z,31.04
2016-05-08T02:57:35.785Z,30.94
2016-05-08T02:58:35.009Z,31.04
2016-05-08T02:59:35.061Z,31.14
2016-05-08T03:00:35.144Z,31.43
2016-05-08T03:01:35.180Z,31.24
2016-05-08T03:02:35.247Z,31.14
2016-05-08T03:03:35.125Z,31.24
2016-05-08T03:04:35.331Z,31.24
2016-05-08T03:05:35.397Z,31.24
2016-05-08T03:06:35.433Z,31.24
2016-05-08T03:07:35.498Z,31.43
2016-05-08T03:08:35.564Z,31.14
2016-05-08T03:09:35.613Z,31.43
2016-05-08T03:10:35.648Z,31.62
2016-05-08T03:11:35.729Z,31.62
2016-05-08T03:12:36.625Z,31.72
2016-05-08T03:13:35.860Z,31.91
2016-05-08T03:14:35.721Z,31.62
2016-05-08T03:15:35.943Z,31.24
2016-05-08T03:16:35.976Z,31.62
2016-05-08T03:17:36.027Z,31.33
2016-05-08T03:18:36.092Z,31.62
2016-05-08T03:19:36.126Z,31.52
2016-05-08T03:20:36.190Z,31.33
2016-05-08T03:21:36.257Z,31.62
2016-05-08T03:22:36.306Z,31.52
2016-05-08T03:23:36.356Z,31.43
2016-05-08T03:24:36.420Z,31.52
2016-05-08T03:25:36.470Z,31.52
2016-05-08T03:26:36.534Z,31.43
2016-05-08T03:27:36.554Z,31.33
2016-05-08T03:28:36.619Z,31.43
2016-05-08T03:29:36.684Z,31.43
2016-05-08T03:30:36.717Z,31.52
2016-05-08T03:31:36.784Z,31.52
2016-05-08T03:32:36.863Z,31.62
2016-05-08T03:33:36.883Z,31.52
2016-05-08T03:34:36.775Z,31.43
2016-05-08T03:35:37.012Z,31.62
2016-05-08T03:36:37.064Z,31.43
2016-05-08T03:37:37.099Z,31.6
2016-05-08T03:38:37.179Z,31.6
2016-05-08T03:39:37.197Z,31.41
2016-05-08T03:40:37.263Z,31.32
2016-05-08T03:41:37.202Z,31.52
2016-05-08T03:42:37.753Z,31.41
2016-05-08T03:43:37.443Z,31.33
2016-05-08T03:44:37.493Z,31.43
2016-05-08T03:45:37.526Z,31.14
2016-05-08T03:46:37.435Z,31.6
2016-05-08T03:47:37.657Z,31.51
2016-05-08T03:48:37.707Z,31.6
2016-05-08T03:49:37.756Z,31.6
2016-05-08T03:50:37.806Z,31.7
2016-05-08T03:51:37.839Z,31.7
2016-05-08T03:52:37.920Z,31.41
2016-05-08T03:53:37.970Z,31.7
2016-05-08T03:54:38.020Z,31.6
2016-05-08T03:55:38.069Z,31.41
2016-05-08T03:56:37.947Z,31.6
2016-05-08T03:57:38.481Z,31.6
2016-05-08T03:58:38.217Z,31.32
2016-05-08T03:59:38.283Z,31.7
2016-05-08T04:00:38.317Z,31.22
2016-05-08T04:01:38.382Z,31.6
2016-05-08T04:02:38.431Z,31.6
2016-05-08T04:03:38.481Z,31.6
2016-05-08T04:04:38.561Z,31.6
2016-05-08T04:05:38.596Z,31.32
2016-05-08T04:06:38.661Z,31.32
2016-05-08T04:07:38.539Z,31.12
2016-05-08T04:08:38.729Z,31.6
2016-05-08T04:09:38.810Z,31.6
2016-05-08T04:10:38.844Z,31.51
2016-05-08T04:11:38.894Z,31.41
2016-05-08T04:12:38.974Z,31.41
2016-05-08T04:13:39.024Z,31.41
2016-05-08T04:14:39.073Z,30.93
2016-05-08T04:15:39.123Z,31.41
2016-05-08T04:16:39.188Z,31.51
2016-05-08T04:17:39.222Z,31.43
2016-05-08T04:18:39.271Z,31.41
2016-05-08T04:19:39.321Z,31.43
2016-05-08T04:20:39.402Z,31.33
2016-05-08T04:21:39.436Z,31.33
2016-05-08T04:22:39.485Z,31.43
2016-05-08T04:23:39.550Z,31.43
2016-05-08T04:24:39.600Z,31.43
2016-05-08T04:25:39.650Z,31.33
2016-05-08T04:26:39.715Z,31.14
2016-05-08T04:27:39.640Z,31.43
2016-05-08T04:28:39.814Z,31.43
2016-05-08T04:29:39.863Z,31.43
2016-05-08T04:30:39.959Z,31.43
2016-05-08T04:31:39.979Z,31.33
2016-05-08T04:32:40.028Z,31.33
2016-05-08T04:33:40.061Z,31.43
2016-05-08T04:34:40.142Z,31.04
2016-05-08T04:35:40.191Z,31.52
2016-05-08T04:36:40.226Z,31.14
2016-05-08T04:37:40.291Z,31.43
2016-05-08T04:38:40.356Z,31.43
2016-05-08T04:39:40.390Z,31.52
2016-05-08T04:40:40.284Z,31.52
2016-05-08T04:41:40.505Z,31.43
2016-05-08T04:42:40.773Z,31.52
2016-05-08T04:43:40.619Z,31.62
2016-05-08T04:44:40.655Z,31.14
2016-05-08T04:45:40.546Z,31.62
2016-05-08T04:46:40.785Z,31.72
2016-05-08T04:47:40.818Z,31.62
2016-05-08T04:48:40.867Z,31.62
2016-05-08T04:49:40.932Z,31.62
2016-05-08T04:50:40.983Z,31.62
2016-05-08T04:51:40.876Z,31.62
2016-05-08T04:52:41.098Z,31.72
2016-05-08T04:53:41.146Z,31.72
2016-05-08T04:54:41.181Z,31.72
2016-05-08T04:55:41.245Z,31.52
2016-05-08T04:56:41.312Z,31.52
2016-05-08T04:57:41.361Z,31.52
2016-05-08T04:58:41.409Z,31.52
2016-05-08T04:59:41.475Z,31.52
2016-05-08T05:00:41.509Z,31.43
2016-05-08T05:01:41.575Z,31.43
2016-05-08T05:02:41.625Z,31.52
2016-05-08T05:03:41.658Z,31.43
2016-05-08T05:04:41.723Z,31.52
2016-05-08T05:05:41.788Z,31.43
2016-05-08T05:06:41.822Z,31.52
2016-05-08T05:07:41.872Z,31.43
2016-05-08T05:08:41.937Z,31.52
2016-05-08T05:09:41.986Z,31.43
2016-05-08T05:10:42.052Z,31.52
2016-05-08T05:11:42.086Z,31.33
2016-05-08T05:12:42.135Z,31.62
2016-05-08T05:13:42.216Z,31.43
2016-05-08T05:14:42.250Z,31.52
2016-05-08T05:15:42.299Z,31.91
2016-05-08T05:16:42.380Z,32.01
2016-05-08T05:17:42.430Z,31.72
2016-05-08T05:18:42.463Z,31.72
2016-05-08T05:19:42.529Z,31.81
2016-05-08T05:20:42.594Z,32.01
2016-05-08T05:21:42.629Z,31.81
2016-05-08T05:22:42.678Z,31.91
2016-05-08T05:23:42.571Z,31.72
2016-05-08T05:24:42.809Z,32.01
2016-05-08T05:25:42.843Z,31.91
2016-05-08T05:26:42.892Z,31.91
2016-05-08T05:27:42.957Z,32.01
2016-05-08T05:28:43.022Z,32.01
2016-05-08T05:29:43.056Z,32.01
2016-05-08T05:30:43.106Z,32.1
2016-05-08T05:31:43.171Z,32.01
2016-05-08T05:32:43.205Z,31.91
2016-05-08T05:33:43.254Z,32.01
2016-05-08T05:34:43.304Z,32.01
2016-05-08T05:35:43.385Z,32.01
2016-05-08T05:36:43.434Z,32.1
2016-05-08T05:37:43.468Z,32.01
2016-05-08T05:38:43.549Z,32.1
2016-05-08T05:39:43.442Z,32.29
2016-05-08T05:40:43.648Z,32.1
2016-05-08T05:41:43.542Z,32.1
2016-05-08T05:42:43.607Z,32.29
2016-05-08T05:43:43.812Z,32.29
2016-05-08T05:44:43.690Z,32.1
2016-05-08T05:45:43.928Z,31.91
2016-05-08T05:46:43.961Z,32.29
2016-05-08T05:47:44.027Z,32.39
2016-05-08T05:48:44.044Z,32.01
2016-05-08T05:49:44.110Z,32.2
2016-05-08T05:50:44.174Z,32.49
2016-05-08T05:51:44.225Z,32.49
2016-05-08T05:52:44.259Z,32.2
2016-05-08T05:53:44.355Z,31.91
2016-05-08T05:54:44.373Z,32.1
2016-05-08T05:55:44.438Z,32.1
2016-05-08T05:56:44.347Z,32.1
2016-05-08T05:57:44.756Z,32.01
2016-05-08T05:58:44.603Z,31.91
2016-05-08T05:59:44.668Z,32.01
2016-05-08T06:00:44.701Z,32.2
2016-05-08T06:01:44.767Z,32.2
2016-05-08T06:02:44.801Z,31.91
2016-05-08T06:03:44.867Z,31.91
2016-05-08T06:04:44.917Z,32.29
2016-05-08T06:05:44.965Z,32.29
2016-05-08T06:06:45.030Z,32.2
2016-05-08T06:07:44.924Z,32.29
2016-05-08T06:08:45.130Z,32.29
2016-05-08T06:09:45.179Z,32.2
2016-05-08T06:10:45.104Z,32.01
2016-05-08T06:11:45.294Z,32.01
2016-05-08T06:12:45.531Z,32.29
2016-05-08T06:13:45.237Z,32.01
2016-05-08T06:14:45.443Z,32.01
2016-05-08T06:15:45.524Z,32.1
2016-05-08T06:16:45.573Z,32.2
2016-05-08T06:17:45.607Z,32.2
2016-05-08T06:18:45.688Z,32.1
2016-05-08T06:19:45.738Z,32.1
2016-05-08T06:20:45.771Z,32.39
2016-05-08T06:21:45.837Z,32.1
2016-05-08T06:22:45.729Z,32.01
2016-05-08T06:23:45.920Z,32.01
2016-05-08T06:24:45.985Z,32.2
2016-05-08T06:25:46.050Z,32.49
2016-05-08T06:26:46.101Z,32.59
2016-05-08T06:27:46.009Z,32.49
2016-05-08T06:28:46.184Z,32.68
2016-05-08T06:29:46.248Z,32.59
2016-05-08T06:30:46.314Z,32.39
2016-05-08T06:31:46.348Z,32.49
2016-05-08T06:32:46.241Z,32.29
2016-05-08T06:33:46.337Z,32.2
2016-05-08T06:34:46.512Z,32.39
2016-05-08T06:35:46.562Z,32.39
2016-05-08T06:36:46.642Z,32.59
2016-05-08T06:37:46.692Z,32.29
2016-05-08T06:38:46.725Z,32.78
2016-05-08T06:39:46.635Z,32.39
2016-05-08T06:40:46.841Z,32.39
2016-05-08T06:41:46.734Z,32.29
2016-05-08T06:42:47.097Z,32.39
2016-05-08T06:43:47.021Z,32.39
2016-05-08T06:44:47.055Z,32.59
2016-05-08T06:45:47.120Z,32.49
2016-05-08T06:46:47.169Z,32.49
2016-05-08T06:47:47.203Z,32.49
2016-05-08T06:48:47.113Z,32.59
2016-05-08T06:49:47.333Z,32.29
2016-05-08T06:50:47.368Z,32.59
2016-05-08T06:51:47.433Z,32.49
2016-05-08T06:52:47.467Z,32.39
2016-05-08T06:53:47.532Z,32.49
2016-05-08T06:54:47.597Z,32.49
2016-05-08T06:55:47.631Z,32.59
2016-05-08T06:56:47.524Z,32.49
2016-05-08T06:57:47.761Z,32.39
2016-05-08T06:58:47.795Z,32.39
2016-05-08T06:59:47.845Z,32.68
2016-05-08T07:00:47.926Z,32.68
2016-05-08T07:01:47.976Z,32.87
2016-05-08T07:02:48.009Z,32.68
2016-05-08T07:03:48.075Z,32.68
2016-05-08T07:04:48.109Z,32.29
2016-05-08T07:05:48.189Z,32.99
2016-05-08T07:06:48.223Z,32.78
2016-05-08T07:07:48.272Z,32.78
2016-05-08T07:08:48.353Z,32.87
2016-05-08T07:09:48.403Z,33.09
2016-05-08T07:10:48.452Z,32.49
2016-05-08T07:11:48.502Z,33.28
2016-05-08T07:12:48.411Z,32.51
2016-05-08T07:13:48.602Z,33.07
2016-05-08T07:14:48.667Z,33.37
2016-05-08T07:15:48.716Z,33.26
2016-05-08T07:16:48.594Z,33.57
2016-05-08T07:17:48.815Z,33.86
2016-05-08T07:18:48.849Z,33.18
2016-05-08T07:19:48.930Z,33.37
2016-05-08T07:20:48.979Z,33.95
2016-05-08T07:21:49.030Z,33.86
2016-05-08T07:22:49.094Z,33.76
2016-05-08T07:23:49.144Z,33.95
2016-05-08T07:24:49.194Z,33.76
2016-05-08T07:25:49.259Z,33.86
2016-05-08T07:26:49.308Z,33.95
2016-05-08T07:27:49.530Z,33.86
2016-05-08T07:28:49.407Z,34.14
2016-05-08T07:29:49.472Z,33.95
2016-05-08T07:30:49.507Z,33.86
2016-05-08T07:31:49.556Z,33.95
2016-05-08T07:32:49.637Z,33.86
2016-05-08T07:33:49.687Z,33.86
2016-05-08T07:34:49.720Z,33.66
2016-05-08T07:35:49.786Z,33.76
2016-05-08T07:36:49.867Z,34.05
2016-05-08T07:37:49.885Z,33.86
2016-05-08T07:38:49.965Z,33.76
2016-05-08T07:39:49.999Z,33.86
2016-05-08T07:40:50.034Z,34.05
2016-05-08T07:41:50.098Z,33.86
2016-05-08T07:42:50.148Z,34.24
2016-05-08T07:43:50.228Z,33.86
2016-05-08T07:44:50.263Z,33.97
2016-05-08T07:45:50.156Z,34.05
2016-05-08T07:46:50.394Z,33.95
2016-05-08T07:47:50.443Z,34.24
2016-05-08T07:48:50.476Z,33.76
2016-05-08T07:49:50.541Z,34.05
2016-05-08T07:50:50.451Z,33.95
2016-05-08T07:51:50.625Z,33.86
2016-05-08T07:52:50.691Z,33.86
2016-05-08T07:53:50.755Z,33.76
2016-05-08T07:54:50.790Z,33.76
2016-05-08T07:55:50.871Z,33.97
2016-05-08T07:56:50.904Z,33.78
2016-05-08T07:57:50.813Z,33.68
2016-05-08T07:58:51.035Z,33.86
2016-05-08T07:59:51.053Z,33.87
2016-05-08T08:00:51.118Z,33.87
2016-05-08T08:01:51.184Z,33.87
2016-05-08T08:02:51.061Z,33.87
2016-05-08T08:03:51.282Z,33.87
2016-05-08T08:04:51.348Z,33.97
2016-05-08T08:05:51.398Z,33.97
2016-05-08T08:06:51.431Z,33.48
2016-05-08T08:07:51.512Z,33.97
2016-05-08T08:08:51.546Z,33.78
2016-05-08T08:09:51.611Z,33.97
2016-05-08T08:10:51.661Z,33.97
2016-05-08T08:11:51.554Z,33.97
2016-05-08T08:12:51.635Z,33.97
2016-05-08T08:13:51.841Z,33.78
2016-05-08T08:14:51.875Z,33.97
2016-05-08T08:15:51.784Z,33.97
2016-05-08T08:16:52.005Z,33.48
2016-05-08T08:17:52.039Z,33.48
2016-05-08T08:18:52.089Z,33.58
2016-05-08T08:19:52.154Z,33.97
2016-05-08T08:20:52.203Z,33.97
2016-05-08T08:21:52.113Z,33.97
2016-05-08T08:22:52.318Z,33.87
2016-05-08T08:23:52.352Z,33.87
2016-05-08T08:24:52.418Z,33.39
2016-05-08T08:25:52.482Z,33.78
2016-05-08T08:26:52.516Z,33.97
2016-05-08T08:27:52.566Z,33.97
2016-05-08T08:28:52.632Z,33.97
2016-05-08T08:29:52.681Z,33.97
2016-05-08T08:30:52.730Z,33.78
2016-05-08T08:31:52.812Z,33.78
2016-05-08T08:32:52.860Z,33.97
2016-05-08T08:33:52.895Z,33.78
2016-05-08T08:34:52.959Z,33.87
2016-05-08T08:35:53.009Z,33.87
2016-05-08T08:36:53.090Z,33.97
2016-05-08T08:37:53.124Z,33.87
2016-05-08T08:38:53.173Z,33.97
2016-05-08T08:39:53.239Z,33.78
2016-05-08T08:40:53.289Z,34.06
2016-05-08T08:41:53.339Z,34.06
2016-05-08T08:42:53.403Z,33.87
2016-05-08T08:43:53.452Z,34.06
2016-05-08T08:44:53.486Z,33.48
2016-05-08T08:45:53.536Z,33.39
2016-05-08T08:46:53.602Z,33.68
2016-05-08T08:47:53.666Z,33.87
2016-05-08T08:48:53.732Z,33.97
2016-05-08T08:49:53.750Z,33.87
2016-05-08T08:50:53.816Z,34.16
2016-05-08T08:51:53.880Z,33.87
2016-05-08T08:52:53.914Z,33.78
2016-05-08T08:53:53.979Z,33.78
2016-05-08T08:54:54.029Z,34.36
2016-05-08T08:55:54.079Z,33.68
2016-05-08T08:56:54.128Z,34.06
2016-05-08T08:57:54.225Z,34.36
2016-05-08T08:58:54.102Z,34.36
2016-05-08T08:59:54.308Z,34.18
2016-05-08T09:00:54.358Z,34.26
2016-05-08T09:01:54.423Z,34.47
2016-05-08T09:02:54.488Z,33.87
2016-05-08T09:03:54.506Z,33.98
2016-05-08T09:04:54.571Z,34.76
2016-05-08T09:05:54.637Z,34.56
2016-05-08T09:06:54.670Z,34.56
2016-05-08T09:07:54.737Z,34.38
2016-05-08T09:08:54.801Z,34.38
2016-05-08T09:09:54.850Z,34.76
2016-05-08T09:10:54.885Z,34.76
2016-05-08T09:11:54.965Z,34.66
2016-05-08T09:12:55.000Z,34.86
2016-05-08T09:13:55.064Z,34.86
2016-05-08T09:14:55.114Z,34.95
2016-05-08T09:15:55.164Z,34.66
2016-05-08T09:16:55.244Z,34.66
2016-05-08T09:17:55.138Z,34.95
2016-05-08T09:18:55.171Z,34.56
2016-05-08T09:19:55.394Z,34.95
2016-05-08T09:20:55.459Z,34.95
2016-05-08T09:21:55.492Z,34.95
2016-05-08T09:22:55.558Z,35.05
2016-05-08T09:23:55.607Z,35.14
2016-05-08T09:24:55.641Z,34.95
2016-05-08T09:25:55.722Z,34.95
2016-05-08T09:26:55.755Z,35.05
2016-05-08T09:27:55.680Z,35.05
2016-05-08T09:28:55.886Z,34.95
2016-05-08T09:29:55.764Z,34.95
2016-05-08T09:30:56.001Z,34.95
2016-05-08T09:31:56.051Z,34.76
2016-05-08T09:32:55.928Z,34.86
2016-05-08T09:33:56.150Z,34.76
2016-05-08T09:34:56.215Z,34.76
2016-05-08T09:35:56.248Z,34.76
2016-05-08T09:36:56.314Z,34.76
2016-05-08T09:37:56.270Z,34.86
2016-05-08T09:38:56.445Z,34.66
2016-05-08T09:39:56.478Z,34.66
2016-05-08T09:40:56.372Z,35.34
2016-05-08T09:41:56.593Z,34.66
2016-05-08T09:42:56.658Z,34.76
2016-05-08T09:43:56.676Z,35.24
2016-05-08T09:44:56.741Z,35.14
2016-05-08T09:45:56.650Z,35.05
2016-05-08T09:46:56.842Z,35.14
2016-05-08T09:47:56.891Z,35.24
2016-05-08T09:48:56.972Z,35.34
2016-05-08T09:49:57.083Z,35.24
2016-05-08T09:50:57.617Z,35.24
2016-05-08T09:51:57.355Z,34.95
2016-05-08T09:52:57.779Z,35.14
2016-05-08T09:53:57.078Z,35.44
2016-05-08T09:54:57.284Z,34.95
2016-05-08T09:55:57.334Z,34.95
2016-05-08T09:56:57.399Z,35.06
2016-05-08T09:57:57.543Z,35.14
2016-05-08T09:58:57.499Z,34.97
2016-05-08T09:59:57.563Z,35.05
2016-05-08T10:00:57.629Z,35.24
2016-05-08T10:01:57.662Z,35.05
2016-05-08T10:02:57.743Z,35.24
2016-05-08T10:03:57.793Z,35.36
2016-05-08T10:04:57.827Z,35.36
2016-05-08T10:05:57.876Z,35.24
2016-05-08T10:06:57.942Z,35.55
2016-05-08T10:07:57.820Z,35.16
2016-05-08T10:08:58.040Z,35.36
2016-05-08T10:09:58.106Z,35.36
2016-05-08T10:10:58.139Z,35.14
2016-05-08T10:11:58.205Z,35.24
2016-05-08T10:12:58.724Z,35.45
2016-05-08T10:13:58.147Z,35.26
2016-05-08T10:14:58.370Z,35.36
2016-05-08T10:15:58.434Z,35.36
2016-05-08T10:16:58.469Z,35.84
2016-05-08T10:17:58.393Z,35.84
2016-05-08T10:18:58.583Z,35.55
2016-05-08T10:19:58.648Z,35.74
2016-05-08T10:20:58.558Z,35.82
2016-05-08T10:21:58.763Z,35.74
2016-05-08T10:22:58.813Z,35.74
2016-05-08T10:23:58.873Z,35.45
2016-05-08T10:24:58.939Z,35.94
2016-05-08T10:25:58.956Z,36.03
2016-05-08T10:26:59.038Z,35.84
2016-05-08T10:27:59.961Z,35.94
2016-05-08T10:28:59.121Z,35.84
2016-05-08T10:29:59.202Z,35.64
2016-05-08T10:30:59.080Z,35.74
2016-05-08T10:31:59.144Z,35.74
2016-05-08T10:32:59.366Z,35.64
2016-05-08T10:33:59.400Z,35.55
2016-05-08T10:34:59.637Z,35.84
2016-05-08T10:35:59.530Z,35.84
2016-05-08T10:36:59.548Z,35.94
2016-05-08T10:37:59.613Z,35.45
2016-05-08T10:38:59.695Z,36.22
2016-05-08T10:39:59.712Z,36.22
2016-05-08T10:40:59.621Z,35.74
2016-05-08T10:41:59.890Z,35.84
2016-05-08T10:43:00.299Z,35.84
2016-05-08T10:43:59.958Z,35.94
2016-05-08T10:45:00.007Z,36.42
2016-05-08T10:46:00.057Z,35.84
2016-05-08T10:47:00.123Z,35.94
2016-05-08T10:48:00.156Z,35.74
2016-05-08T10:49:00.222Z,35.74
2016-05-08T10:50:00.287Z,36.42
2016-05-08T10:51:00.306Z,35.94
2016-05-08T10:52:00.370Z,36.22
2016-05-08T10:53:00.436Z,36.22
2016-05-08T10:54:00.485Z,35.94
2016-05-08T10:55:00.394Z,35.94
2016-05-08T10:56:00.584Z,35.94
2016-05-08T10:57:00.650Z,36.03
2016-05-08T10:58:01.074Z,35.84
2016-05-08T10:59:00.608Z,36.22
2016-05-08T11:00:00.814Z,35.84
2016-05-08T11:01:00.879Z,36.22
2016-05-08T11:02:00.913Z,35.94
2016-05-08T11:03:00.962Z,36.52
2016-05-08T11:04:00.918Z,36.22
2016-05-08T11:05:01.092Z,36.42
2016-05-08T11:06:01.126Z,35.84
2016-05-08T11:07:01.224Z,36.42
2016-05-08T11:08:01.241Z,36.42
2016-05-08T11:09:01.321Z,36.32
2016-05-08T11:10:01.215Z,36.42
2016-05-08T11:11:02.296Z,36.32
2016-05-08T11:12:02.049Z,36.22
2016-05-08T11:13:02.707Z,36.52
2016-05-08T11:14:02.554Z,36.42
2016-05-08T11:15:02.088Z,36.52
2016-05-08T11:16:01.810Z,36.52
2016-05-08T11:17:02.282Z,36.22
2016-05-08T11:18:02.628Z,36.03
2016-05-08T11:19:03.459Z,36.52
2016-05-08T11:20:02.680Z,36.32
2016-05-08T11:21:02.839Z,36.32
2016-05-08T11:22:03.138Z,36.52
2016-05-08T11:23:02.922Z,35.84
2016-05-08T11:24:02.675Z,36.03
2016-05-08T11:25:02.006Z,35.84
2016-05-08T11:26:02.242Z,35.84
2016-05-08T11:27:02.292Z,36.03
2016-05-08T11:28:02.342Z,35.94
2016-05-08T11:29:02.375Z,35.45
2016-05-08T11:30:02.472Z,35.16
2016-05-08T11:31:02.505Z,34.68
2016-05-08T11:32:02.556Z,34.78
2016-05-08T11:33:02.622Z,35.36
2016-05-08T11:34:02.514Z,34.78
2016-05-08T11:35:02.736Z,34.97
2016-05-08T11:36:02.769Z,34.97
2016-05-08T11:37:02.819Z,34.78
2016-05-08T11:38:02.900Z,34.97
2016-05-08T11:39:02.918Z,34.78
2016-05-08T11:40:02.843Z,34.48
2016-05-08T11:41:03.049Z,33.72
2016-05-08T11:42:03.098Z,33.72
2016-05-08T11:43:03.148Z,33.81
2016-05-08T11:44:03.213Z,33.42
2016-05-08T11:45:03.262Z,33.23
2016-05-08T11:46:03.312Z,32.46
2016-05-08T11:47:03.377Z,31.68
2016-05-08T11:48:03.475Z,31.2
2016-05-08T11:49:03.536Z,31.1
2016-05-08T11:50:03.642Z,30.43
2016-05-08T11:51:03.750Z,30.43
2016-05-08T11:52:03.684Z,29.46
2016-05-08T11:53:03.911Z,29.36
2016-05-08T11:54:04.008Z,28.78
2016-05-08T11:55:04.056Z,29.46
2016-05-08T11:56:03.964Z,28.78
2016-05-08T11:57:04.200Z,28.2
2016-05-08T11:58:04.430Z,27.62
2016-05-08T11:59:04.329Z,27.53
2016-05-08T12:00:04.368Z,27.82
2016-05-08T12:01:04.438Z,28.3
2016-05-08T12:02:04.509Z,28.88
2016-05-08T12:03:04.546Z,28.59
2016-05-08T12:04:04.597Z,29.17
2016-05-08T12:05:04.680Z,29.36
2016-05-08T12:06:04.715Z,28.87
2016-05-08T12:07:04.767Z,28.78
2016-05-08T12:08:04.848Z,29.55
2016-05-08T12:09:04.899Z,29.27
2016-05-08T12:10:04.934Z,29.75
2016-05-08T12:11:05.016Z,29.64
2016-05-08T12:12:05.051Z,28.88
2016-05-08T12:13:05.240Z,28.77
2016-05-08T12:14:05.164Z,29.35
2016-05-08T12:15:05.215Z,29.36
2016-05-08T12:16:05.280Z,29.45
2016-05-08T12:17:05.329Z,29.25
2016-05-08T12:18:05.378Z,29.56
2016-05-08T12:19:05.460Z,29.64
2016-05-08T12:20:05.495Z,29.35
2016-05-08T12:21:05.544Z,29.56
2016-05-08T12:22:05.609Z,29.64
2016-05-08T12:23:05.674Z,29.36
2016-05-08T12:24:05.708Z,29.55
2016-05-08T12:25:05.772Z,30.32
2016-05-08T12:26:05.807Z,29.66
2016-05-08T12:27:05.872Z,29.66
2016-05-08T12:28:05.781Z,29.56
2016-05-08T12:29:05.971Z,29.64
2016-05-08T12:30:06.036Z,30.41
2016-05-08T12:31:06.086Z,30.04
2016-05-08T12:32:06.135Z,29.83
2016-05-08T12:33:06.185Z,29.55
2016-05-08T12:34:06.265Z,29.83
2016-05-08T12:35:06.300Z,30.51
2016-05-08T12:36:06.366Z,30.51
2016-05-08T12:37:06.430Z,30.52
2016-05-08T12:38:06.324Z,30.43
2016-05-08T12:39:06.529Z,29.85
2016-05-08T12:40:06.407Z,30.72
2016-05-08T12:41:06.629Z,30.03
2016-05-08T12:42:06.693Z,29.75
2016-05-08T12:43:07.024Z,30.61
2016-05-08T12:44:06.793Z,30.03
2016-05-08T12:45:06.873Z,30.14
2016-05-08T12:46:06.892Z,30.32
2016-05-08T12:47:06.942Z,30.33
2016-05-08T12:48:07.022Z,30.04
2016-05-08T12:49:07.072Z,30.43
2016-05-08T12:50:07.121Z,29.94
2016-05-08T12:51:07.170Z,30.14
2016-05-08T12:52:07.237Z,30.04
2016-05-08T12:53:07.301Z,30.32
2016-05-08T12:54:07.351Z,30.14
2016-05-08T12:55:07.385Z,30.43